sensor_id;sensor_type;location;lat;lon;timestamp;P1;durP1;ratioP1;P2;durP2;ratioP2
3245;SDS011;1635;48.000;10.582;2022-10-16T00:01:46;37.47;;;1.30;;
3245;SDS011;1635;48.000;10.582;2022-10-16T00:04:16;37.83;;;1.40;;
3245;SDS011;1635;48.000;10.582;2022-10-16T00:06:44;37.77;;;1.30;;
3245;SDS011;1635;48.000;10.582;2022-10-16T00:09:13;37.53;;;1.30;;
3245;SDS011;1635;48.000;10.582;2022-10-16T00:11:43;37.63;;;1.40;;
3245;SDS011;1635;48.000;10.582;2022-10-16T00:14:12;37.67;;;1.30;;
3245;SDS011;1635;48.000;10.582;2022-10-16T00:16:42;37.20;;;1.20;;
3245;SDS011;1635;48.000;10.582;2022-10-16T00:19:10;37.40;;;1.30;;
3245;SDS011;1635;48.000;10.582;2022-10-16T00:21:39;37.50;;;1.20;;
3245;SDS011;1635;48.000;10.582;2022-10-16T00:24:08;37.67;;;1.30;;
3245;SDS011;1635;48.000;10.582;2022-10-16T00:26:37;37.30;;;1.30;;
3245;SDS011;1635;48.000;10.582;2022-10-16T00:29:06;37.43;;;1.27;;
3245;SDS011;1635;48.000;10.582;2022-10-16T00:31:35;37.63;;;1.30;;
3245;SDS011;1635;48.000;10.582;2022-10-16T00:34:05;37.67;;;1.27;;
3245;SDS011;1635;48.000;10.582;2022-10-16T00:36:35;37.27;;;1.20;;
3245;SDS011;1635;48.000;10.582;2022-10-16T00:39:03;36.97;;;1.20;;
3245;SDS011;1635;48.000;10.582;2022-10-16T00:41:31;37.03;;;1.30;;
3245;SDS011;1635;48.000;10.582;2022-10-16T00:44:02;37.13;;;1.30;;
3245;SDS011;1635;48.000;10.582;2022-10-16T00:46:50;36.83;;;1.30;;
3245;SDS011;1635;48.000;10.582;2022-10-16T00:49:19;36.63;;;1.30;;
3245;SDS011;1635;48.000;10.582;2022-10-16T00:51:51;36.20;;;1.17;;
3245;SDS011;1635;48.000;10.582;2022-10-16T00:54:25;36.27;;;1.30;;
3245;SDS011;1635;48.000;10.582;2022-10-16T00:56:56;35.93;;;1.20;;
3245;SDS011;1635;48.000;10.582;2022-10-16T00:59:31;36.10;;;1.20;;
3245;SDS011;1635;48.000;10.582;2022-10-16T01:02:03;36.40;;;1.30;;
3245;SDS011;1635;48.000;10.582;2022-10-16T01:04:34;36.53;;;1.20;;
3245;SDS011;1635;48.000;10.582;2022-10-16T01:13:08;35.80;;;1.20;;
3245;SDS011;1635;48.000;10.582;2022-10-16T01:16:00;35.37;;;1.23;;
3245;SDS011;1635;48.000;10.582;2022-10-16T01:18:45;35.13;;;1.10;;
3245;SDS011;1635;48.000;10.582;2022-10-16T01:21:32;35.20;;;1.20;;
3245;SDS011;1635;48.000;10.582;2022-10-16T01:32:38;35.77;;;1.13;;
3245;SDS011;1635;48.000;10.582;2022-10-16T01:35:22;35.83;;;1.20;;
3245;SDS011;1635;48.000;10.582;2022-10-16T01:40:39;34.97;;;1.20;;
3245;SDS011;1635;48.000;10.582;2022-10-16T01:43:22;34.80;;;1.17;;
3245;SDS011;1635;48.000;10.582;2022-10-16T01:45:59;34.47;;;1.10;;
3245;SDS011;1635;48.000;10.582;2022-10-16T01:48:28;34.63;;;1.10;;
3245;SDS011;1635;48.000;10.582;2022-10-16T01:51:17;34.37;;;1.10;;
3245;SDS011;1635;48.000;10.582;2022-10-16T01:53:48;34.43;;;1.10;;
3245;SDS011;1635;48.000;10.582;2022-10-16T01:56:20;34.47;;;1.20;;
3245;SDS011;1635;48.000;10.582;2022-10-16T01:58:54;34.83;;;1.20;;
3245;SDS011;1635;48.000;10.582;2022-10-16T02:01:27;35.27;;;1.20;;
3245;SDS011;1635;48.000;10.582;2022-10-16T02:03:58;35.03;;;1.20;;
3245;SDS011;1635;48.000;10.582;2022-10-16T02:06:32;34.87;;;1.20;;
3245;SDS011;1635;48.000;10.582;2022-10-16T02:09:00;34.83;;;1.20;;
3245;SDS011;1635;48.000;10.582;2022-10-16T02:11:28;34.87;;;1.10;;
3245;SDS011;1635;48.000;10.582;2022-10-16T02:14:00;34.73;;;1.13;;
3245;SDS011;1635;48.000;10.582;2022-10-16T02:16:36;35.03;;;1.10;;
3245;SDS011;1635;48.000;10.582;2022-10-16T02:19:17;35.17;;;1.20;;
3245;SDS011;1635;48.000;10.582;2022-10-16T02:22:07;34.87;;;1.20;;
3245;SDS011;1635;48.000;10.582;2022-10-16T02:28:32;34.90;;;1.20;;
3245;SDS011;1635;48.000;10.582;2022-10-16T02:31:29;35.27;;;1.17;;
3245;SDS011;1635;48.000;10.582;2022-10-16T02:34:01;35.37;;;1.20;;
3245;SDS011;1635;48.000;10.582;2022-10-16T02:36:32;35.17;;;1.20;;
3245;SDS011;1635;48.000;10.582;2022-10-16T02:39:02;35.13;;;1.10;;
3245;SDS011;1635;48.000;10.582;2022-10-16T02:41:33;35.37;;;1.20;;
3245;SDS011;1635;48.000;10.582;2022-10-16T02:44:01;35.47;;;1.20;;
3245;SDS011;1635;48.000;10.582;2022-10-16T02:46:30;35.63;;;1.10;;
3245;SDS011;1635;48.000;10.582;2022-10-16T02:48:58;35.33;;;1.20;;
3245;SDS011;1635;48.000;10.582;2022-10-16T02:51:25;35.27;;;1.20;;
3245;SDS011;1635;48.000;10.582;2022-10-16T02:53:56;35.00;;;1.30;;
3245;SDS011;1635;48.000;10.582;2022-10-16T02:56:25;35.37;;;1.20;;
3245;SDS011;1635;48.000;10.582;2022-10-16T03:02:04;35.03;;;1.17;;
3245;SDS011;1635;48.000;10.582;2022-10-16T03:04:32;34.93;;;1.20;;
3245;SDS011;1635;48.000;10.582;2022-10-16T03:07:01;35.27;;;1.20;;
3245;SDS011;1635;48.000;10.582;2022-10-16T03:09:29;35.33;;;1.30;;
3245;SDS011;1635;48.000;10.582;2022-10-16T03:11:57;35.73;;;1.30;;
3245;SDS011;1635;48.000;10.582;2022-10-16T03:14:30;35.73;;;1.30;;
3245;SDS011;1635;48.000;10.582;2022-10-16T03:16:59;36.70;;;3.50;;
3245;SDS011;1635;48.000;10.582;2022-10-16T03:19:27;36.07;;;1.20;;
3245;SDS011;1635;48.000;10.582;2022-10-16T03:21:54;36.17;;;1.30;;
3245;SDS011;1635;48.000;10.582;2022-10-16T03:24:23;36.07;;;1.30;;
3245;SDS011;1635;48.000;10.582;2022-10-16T03:26:51;36.20;;;1.33;;
3245;SDS011;1635;48.000;10.582;2022-10-16T03:29:19;36.23;;;1.30;;
3245;SDS011;1635;48.000;10.582;2022-10-16T03:31:47;36.27;;;1.30;;
3245;SDS011;1635;48.000;10.582;2022-10-16T03:34:17;36.27;;;1.30;;
3245;SDS011;1635;48.000;10.582;2022-10-16T03:36:45;36.33;;;1.30;;
3245;SDS011;1635;48.000;10.582;2022-10-16T03:39:13;36.40;;;1.30;;
3245;SDS011;1635;48.000;10.582;2022-10-16T03:41:41;36.67;;;1.33;;
3245;SDS011;1635;48.000;10.582;2022-10-16T03:44:09;36.27;;;1.30;;
3245;SDS011;1635;48.000;10.582;2022-10-16T03:46:37;36.30;;;1.10;;
3245;SDS011;1635;48.000;10.582;2022-10-16T03:49:06;36.67;;;1.27;;
3245;SDS011;1635;48.000;10.582;2022-10-16T03:51:36;36.67;;;1.20;;
3245;SDS011;1635;48.000;10.582;2022-10-16T03:54:04;36.63;;;1.33;;
3245;SDS011;1635;48.000;10.582;2022-10-16T03:56:33;36.63;;;1.20;;
3245;SDS011;1635;48.000;10.582;2022-10-16T03:59:01;36.77;;;1.30;;
3245;SDS011;1635;48.000;10.582;2022-10-16T04:01:31;36.67;;;1.30;;
3245;SDS011;1635;48.000;10.582;2022-10-16T04:03:59;36.93;;;1.20;;
3245;SDS011;1635;48.000;10.582;2022-10-16T04:06:26;36.97;;;1.30;;
3245;SDS011;1635;48.000;10.582;2022-10-16T04:08:54;37.20;;;1.40;;
3245;SDS011;1635;48.000;10.582;2022-10-16T04:11:23;37.27;;;1.40;;
3245;SDS011;1635;48.000;10.582;2022-10-16T04:13:51;37.20;;;1.33;;
3245;SDS011;1635;48.000;10.582;2022-10-16T04:16:19;37.47;;;1.30;;
3245;SDS011;1635;48.000;10.582;2022-10-16T04:18:49;37.57;;;1.33;;
3245;SDS011;1635;48.000;10.582;2022-10-16T04:21:17;37.47;;;1.30;;
3245;SDS011;1635;48.000;10.582;2022-10-16T04:23:45;37.33;;;1.37;;
3245;SDS011;1635;48.000;10.582;2022-10-16T04:26:13;37.47;;;1.33;;
3245;SDS011;1635;48.000;10.582;2022-10-16T04:28:42;37.57;;;1.33;;
3245;SDS011;1635;48.000;10.582;2022-10-16T04:31:10;37.37;;;1.30;;
3245;SDS011;1635;48.000;10.582;2022-10-16T04:33:42;37.40;;;1.50;;
3245;SDS011;1635;48.000;10.582;2022-10-16T04:36:12;37.43;;;1.40;;
3245;SDS011;1635;48.000;10.582;2022-10-16T04:38:40;37.30;;;1.40;;
3245;SDS011;1635;48.000;10.582;2022-10-16T04:41:08;37.33;;;1.27;;
3245;SDS011;1635;48.000;10.582;2022-10-16T04:43:36;37.27;;;1.30;;
3245;SDS011;1635;48.000;10.582;2022-10-16T04:46:04;37.13;;;1.30;;
3245;SDS011;1635;48.000;10.582;2022-10-16T04:48:32;36.97;;;1.23;;
3245;SDS011;1635;48.000;10.582;2022-10-16T04:51:00;36.90;;;1.30;;
3245;SDS011;1635;48.000;10.582;2022-10-16T04:53:28;36.57;;;1.30;;
3245;SDS011;1635;48.000;10.582;2022-10-16T04:55:57;37.03;;;1.20;;
3245;SDS011;1635;48.000;10.582;2022-10-16T04:58:25;37.07;;;1.23;;
3245;SDS011;1635;48.000;10.582;2022-10-16T05:00:53;37.27;;;1.30;;
3245;SDS011;1635;48.000;10.582;2022-10-16T05:03:22;37.07;;;1.23;;
3245;SDS011;1635;48.000;10.582;2022-10-16T05:05:50;37.03;;;1.37;;
3245;SDS011;1635;48.000;10.582;2022-10-16T05:08:19;36.97;;;1.30;;
3245;SDS011;1635;48.000;10.582;2022-10-16T05:10:47;37.07;;;1.30;;
3245;SDS011;1635;48.000;10.582;2022-10-16T05:13:15;37.23;;;1.37;;
3245;SDS011;1635;48.000;10.582;2022-10-16T05:15:48;37.33;;;1.30;;
3245;SDS011;1635;48.000;10.582;2022-10-16T05:18:16;36.97;;;1.43;;
3245;SDS011;1635;48.000;10.582;2022-10-16T05:20:44;37.03;;;1.30;;
3245;SDS011;1635;48.000;10.582;2022-10-16T05:23:17;37.33;;;1.50;;
3245;SDS011;1635;48.000;10.582;2022-10-16T05:25:51;37.23;;;1.40;;
3245;SDS011;1635;48.000;10.582;2022-10-16T05:28:24;37.07;;;1.30;;
3245;SDS011;1635;48.000;10.582;2022-10-16T05:30:58;37.27;;;1.30;;
3245;SDS011;1635;48.000;10.582;2022-10-16T05:33:27;37.33;;;1.50;;
3245;SDS011;1635;48.000;10.582;2022-10-16T05:35:55;37.00;;;1.30;;
3245;SDS011;1635;48.000;10.582;2022-10-16T05:38:23;37.33;;;1.30;;
3245;SDS011;1635;48.000;10.582;2022-10-16T05:40:55;37.47;;;1.30;;
3245;SDS011;1635;48.000;10.582;2022-10-16T05:43:29;37.47;;;1.50;;
3245;SDS011;1635;48.000;10.582;2022-10-16T05:45:59;37.37;;;1.30;;
3245;SDS011;1635;48.000;10.582;2022-10-16T05:48:29;37.27;;;1.50;;
3245;SDS011;1635;48.000;10.582;2022-10-16T05:51:03;36.97;;;1.40;;
3245;SDS011;1635;48.000;10.582;2022-10-16T05:53:34;36.90;;;1.40;;
3245;SDS011;1635;48.000;10.582;2022-10-16T05:56:04;36.73;;;1.30;;
3245;SDS011;1635;48.000;10.582;2022-10-16T05:58:36;36.97;;;1.60;;
3245;SDS011;1635;48.000;10.582;2022-10-16T06:01:12;36.83;;;1.20;;
3245;SDS011;1635;48.000;10.582;2022-10-16T06:03:44;36.97;;;1.30;;
3245;SDS011;1635;48.000;10.582;2022-10-16T06:06:14;37.23;;;1.40;;
3245;SDS011;1635;48.000;10.582;2022-10-16T06:08:43;37.43;;;1.50;;
3245;SDS011;1635;48.000;10.582;2022-10-16T06:11:17;37.57;;;1.50;;
3245;SDS011;1635;48.000;10.582;2022-10-16T06:13:50;37.47;;;1.50;;
3245;SDS011;1635;48.000;10.582;2022-10-16T06:16:24;37.43;;;1.53;;
3245;SDS011;1635;48.000;10.582;2022-10-16T06:18:54;37.50;;;1.60;;
3245;SDS011;1635;48.000;10.582;2022-10-16T06:21:23;37.63;;;1.47;;
3245;SDS011;1635;48.000;10.582;2022-10-16T06:23:53;37.57;;;1.47;;
3245;SDS011;1635;48.000;10.582;2022-10-16T06:26:25;36.90;;;1.33;;
3245;SDS011;1635;48.000;10.582;2022-10-16T06:28:58;37.10;;;1.60;;
3245;SDS011;1635;48.000;10.582;2022-10-16T06:31:27;37.10;;;1.60;;
3245;SDS011;1635;48.000;10.582;2022-10-16T06:33:58;36.87;;;1.57;;
3245;SDS011;1635;48.000;10.582;2022-10-16T06:36:27;37.13;;;1.70;;
3245;SDS011;1635;48.000;10.582;2022-10-16T06:38:56;36.57;;;1.50;;
3245;SDS011;1635;48.000;10.582;2022-10-16T06:41:24;36.37;;;1.50;;
3245;SDS011;1635;48.000;10.582;2022-10-16T06:43:52;36.77;;;1.60;;
3245;SDS011;1635;48.000;10.582;2022-10-16T06:46:21;37.13;;;1.70;;
3245;SDS011;1635;48.000;10.582;2022-10-16T06:48:51;37.57;;;1.90;;
3245;SDS011;1635;48.000;10.582;2022-10-16T06:51:20;38.73;;;2.50;;
3245;SDS011;1635;48.000;10.582;2022-10-16T06:53:58;39.07;;;2.50;;
3245;SDS011;1635;48.000;10.582;2022-10-16T06:56:32;39.37;;;2.57;;
3245;SDS011;1635;48.000;10.582;2022-10-16T06:59:00;39.17;;;2.70;;
3245;SDS011;1635;48.000;10.582;2022-10-16T07:01:32;39.27;;;3.00;;
3245;SDS011;1635;48.000;10.582;2022-10-16T07:04:01;38.73;;;2.93;;
3245;SDS011;1635;48.000;10.582;2022-10-16T07:06:30;40.87;;;4.50;;
3245;SDS011;1635;48.000;10.582;2022-10-16T07:09:03;39.77;;;3.13;;
3245;SDS011;1635;48.000;10.582;2022-10-16T07:11:36;40.23;;;3.37;;
3245;SDS011;1635;48.000;10.582;2022-10-16T07:14:21;40.30;;;3.57;;
3245;SDS011;1635;48.000;10.582;2022-10-16T07:16:52;40.30;;;3.47;;
3245;SDS011;1635;48.000;10.582;2022-10-16T07:19:20;40.87;;;3.73;;
3245;SDS011;1635;48.000;10.582;2022-10-16T07:21:50;41.50;;;4.10;;
3245;SDS011;1635;48.000;10.582;2022-10-16T07:24:17;41.53;;;3.90;;
3245;SDS011;1635;48.000;10.582;2022-10-16T07:26:46;41.57;;;4.10;;
3245;SDS011;1635;48.000;10.582;2022-10-16T07:29:15;41.73;;;4.07;;
3245;SDS011;1635;48.000;10.582;2022-10-16T07:31:47;37.73;;;3.80;;
3245;SDS011;1635;48.000;10.582;2022-10-16T07:34:16;41.47;;;4.23;;
3245;SDS011;1635;48.000;10.582;2022-10-16T07:36:47;41.27;;;3.77;;
3245;SDS011;1635;48.000;10.582;2022-10-16T07:39:16;479.13;;;240.43;;
3245;SDS011;1635;48.000;10.582;2022-10-16T07:41:45;42.20;;;3.83;;
3245;SDS011;1635;48.000;10.582;2022-10-16T07:44:15;40.70;;;4.00;;
3245;SDS011;1635;48.000;10.582;2022-10-16T07:46:43;86.73;;;28.37;;
3245;SDS011;1635;48.000;10.582;2022-10-16T07:49:11;1999.90;;;999.90;;
3245;SDS011;1635;48.000;10.582;2022-10-16T07:51:39;1999.90;;;999.90;;
3245;SDS011;1635;48.000;10.582;2022-10-16T07:54:08;1999.90;;;999.90;;
3245;SDS011;1635;48.000;10.582;2022-10-16T07:56:36;1999.90;;;999.90;;
3245;SDS011;1635;48.000;10.582;2022-10-16T07:59:09;1999.90;;;999.90;;
3245;SDS011;1635;48.000;10.582;2022-10-16T08:01:37;791.00;;;350.77;;
3245;SDS011;1635;48.000;10.582;2022-10-16T08:04:05;1382.40;;;689.63;;
3245;SDS011;1635;48.000;10.582;2022-10-16T08:06:35;81.30;;;14.40;;
3245;SDS011;1635;48.000;10.582;2022-10-16T08:09:04;72.77;;;7.67;;
3245;SDS011;1635;48.000;10.582;2022-10-16T08:11:36;73.20;;;8.00;;
3245;SDS011;1635;48.000;10.582;2022-10-16T08:14:03;73.93;;;8.00;;
3245;SDS011;1635;48.000;10.582;2022-10-16T08:16:31;62.87;;;6.43;;
3245;SDS011;1635;48.000;10.582;2022-10-16T08:18:58;66.57;;;8.10;;
3245;SDS011;1635;48.000;10.582;2022-10-16T08:21:26;78.87;;;22.93;;
3245;SDS011;1635;48.000;10.582;2022-10-16T08:23:54;79.07;;;21.93;;
3245;SDS011;1635;48.000;10.582;2022-10-16T08:26:25;78.80;;;13.80;;
3245;SDS011;1635;48.000;10.582;2022-10-16T08:28:53;92.90;;;32.00;;
3245;SDS011;1635;48.000;10.582;2022-10-16T08:31:23;78.33;;;17.97;;
3245;SDS011;1635;48.000;10.582;2022-10-16T08:33:50;87.70;;;21.13;;
3245;SDS011;1635;48.000;10.582;2022-10-16T08:36:19;105.10;;;64.63;;
3245;SDS011;1635;48.000;10.582;2022-10-16T08:38:47;91.50;;;24.33;;
3245;SDS011;1635;48.000;10.582;2022-10-16T08:41:54;91.37;;;24.10;;
3245;SDS011;1635;48.000;10.582;2022-10-16T08:50:21;120.50;;;64.07;;
3245;SDS011;1635;48.000;10.582;2022-10-16T08:52:55;100.33;;;34.23;;
3245;SDS011;1635;48.000;10.582;2022-10-16T08:55:28;241.77;;;221.07;;
3245;SDS011;1635;48.000;10.582;2022-10-16T08:58:18;109.93;;;61.63;;
3245;SDS011;1635;48.000;10.582;2022-10-16T09:00:48;115.60;;;79.13;;
3245;SDS011;1635;48.000;10.582;2022-10-16T09:12:31;84.83;;;19.40;;
3245;SDS011;1635;48.000;10.582;2022-10-16T09:18:37;93.97;;;25.90;;
3245;SDS011;1635;48.000;10.582;2022-10-16T09:21:21;93.10;;;28.50;;
3245;SDS011;1635;48.000;10.582;2022-10-16T09:23:59;93.07;;;27.33;;
3245;SDS011;1635;48.000;10.582;2022-10-16T09:26:37;98.93;;;39.03;;
3245;SDS011;1635;48.000;10.582;2022-10-16T09:29:04;96.80;;;29.30;;
3245;SDS011;1635;48.000;10.582;2022-10-16T09:31:32;107.87;;;48.87;;
3245;SDS011;1635;48.000;10.582;2022-10-16T09:34:04;99.87;;;33.10;;
3245;SDS011;1635;48.000;10.582;2022-10-16T09:36:43;107.27;;;35.97;;
3245;SDS011;1635;48.000;10.582;2022-10-16T09:39:13;101.00;;;31.03;;
3245;SDS011;1635;48.000;10.582;2022-10-16T09:41:43;104.97;;;33.00;;
3245;SDS011;1635;48.000;10.582;2022-10-16T09:44:16;129.90;;;73.83;;
3245;SDS011;1635;48.000;10.582;2022-10-16T09:47:00;105.97;;;34.97;;
3245;SDS011;1635;48.000;10.582;2022-10-16T09:49:29;188.37;;;170.03;;
3245;SDS011;1635;48.000;10.582;2022-10-16T09:54:59;104.70;;;34.87;;
3245;SDS011;1635;48.000;10.582;2022-10-16T09:57:54;123.33;;;81.87;;
3245;SDS011;1635;48.000;10.582;2022-10-16T10:00:22;107.10;;;37.27;;
3245;SDS011;1635;48.000;10.582;2022-10-16T10:02:52;102.13;;;38.03;;
3245;SDS011;1635;48.000;10.582;2022-10-16T10:05:25;100.97;;;32.10;;
3245;SDS011;1635;48.000;10.582;2022-10-16T10:08:02;96.63;;;28.30;;
3245;SDS011;1635;48.000;10.582;2022-10-16T10:10:37;99.10;;;30.70;;
3245;SDS011;1635;48.000;10.582;2022-10-16T10:13:17;115.60;;;61.57;;
3245;SDS011;1635;48.000;10.582;2022-10-16T10:15:48;102.07;;;33.37;;
3245;SDS011;1635;48.000;10.582;2022-10-16T10:18:18;118.13;;;53.20;;
3245;SDS011;1635;48.000;10.582;2022-10-16T10:21:02;103.03;;;37.37;;
3245;SDS011;1635;48.000;10.582;2022-10-16T10:23:32;139.13;;;111.83;;
3245;SDS011;1635;48.000;10.582;2022-10-16T10:26:16;153.83;;;137.10;;
3245;SDS011;1635;48.000;10.582;2022-10-16T10:28:55;242.93;;;221.70;;
3245;SDS011;1635;48.000;10.582;2022-10-16T10:37:04;106.27;;;45.40;;
3245;SDS011;1635;48.000;10.582;2022-10-16T10:45:24;99.53;;;31.77;;
3245;SDS011;1635;48.000;10.582;2022-10-16T10:50:57;143.60;;;122.27;;
3245;SDS011;1635;48.000;10.582;2022-10-16T10:56:29;94.37;;;29.60;;
3245;SDS011;1635;48.000;10.582;2022-10-16T11:07:28;81.30;;;17.90;;
3245;SDS011;1635;48.000;10.582;2022-10-16T11:10:20;84.90;;;20.33;;
3245;SDS011;1635;48.000;10.582;2022-10-16T11:12:55;78.60;;;13.53;;
3245;SDS011;1635;48.000;10.582;2022-10-16T11:15:35;89.23;;;32.90;;
3245;SDS011;1635;48.000;10.582;2022-10-16T11:18:23;73.30;;;12.20;;
3245;SDS011;1635;48.000;10.582;2022-10-16T11:21:04;67.90;;;11.83;;
3245;SDS011;1635;48.000;10.582;2022-10-16T11:23:38;66.60;;;9.50;;
3245;SDS011;1635;48.000;10.582;2022-10-16T11:26:12;68.47;;;10.67;;
3245;SDS011;1635;48.000;10.582;2022-10-16T11:28:47;69.10;;;9.50;;
3245;SDS011;1635;48.000;10.582;2022-10-16T11:31:29;81.47;;;22.60;;
3245;SDS011;1635;48.000;10.582;2022-10-16T11:39:43;69.27;;;9.70;;
3245;SDS011;1635;48.000;10.582;2022-10-16T11:42:22;74.40;;;11.57;;
3245;SDS011;1635;48.000;10.582;2022-10-16T11:45:15;90.83;;;36.57;;
3245;SDS011;1635;48.000;10.582;2022-10-16T11:48:46;78.17;;;11.70;;
3245;SDS011;1635;48.000;10.582;2022-10-16T11:50:53;96.17;;;34.63;;
3245;SDS011;1635;48.000;10.582;2022-10-16T11:56:22;96.87;;;33.03;;
3245;SDS011;1635;48.000;10.582;2022-10-16T11:59:02;87.67;;;15.33;;
3245;SDS011;1635;48.000;10.582;2022-10-16T12:01:44;93.47;;;22.83;;
3245;SDS011;1635;48.000;10.582;2022-10-16T12:04:36;94.53;;;22.10;;
3245;SDS011;1635;48.000;10.582;2022-10-16T12:07:19;91.10;;;17.33;;
3245;SDS011;1635;48.000;10.582;2022-10-16T12:09:53;92.60;;;21.33;;
3245;SDS011;1635;48.000;10.582;2022-10-16T12:18:21;94.20;;;24.23;;
3245;SDS011;1635;48.000;10.582;2022-10-16T12:20:57;97.67;;;32.20;;
3245;SDS011;1635;48.000;10.582;2022-10-16T12:23:26;101.40;;;28.10;;
3245;SDS011;1635;48.000;10.582;2022-10-16T12:25:54;116.43;;;47.40;;
3245;SDS011;1635;48.000;10.582;2022-10-16T12:28:30;118.33;;;52.73;;
3245;SDS011;1635;48.000;10.582;2022-10-16T12:31:00;111.67;;;37.40;;
3245;SDS011;1635;48.000;10.582;2022-10-16T12:36:29;120.27;;;52.27;;
3245;SDS011;1635;48.000;10.582;2022-10-16T12:38:59;142.43;;;106.00;;
3245;SDS011;1635;48.000;10.582;2022-10-16T12:41:29;107.77;;;37.40;;
3245;SDS011;1635;48.000;10.582;2022-10-16T12:44:02;101.60;;;25.20;;
3245;SDS011;1635;48.000;10.582;2022-10-16T12:49:17;110.23;;;39.57;;
3245;SDS011;1635;48.000;10.582;2022-10-16T12:51:49;126.43;;;73.60;;
3245;SDS011;1635;48.000;10.582;2022-10-16T13:00:16;120.37;;;46.23;;
3245;SDS011;1635;48.000;10.582;2022-10-16T13:22:56;1999.90;;;999.90;;
3245;SDS011;1635;48.000;10.582;2022-10-16T13:25:42;1999.90;;;999.90;;
3245;SDS011;1635;48.000;10.582;2022-10-16T13:28:15;1999.90;;;999.90;;
3245;SDS011;1635;48.000;10.582;2022-10-16T13:30:54;1999.90;;;999.90;;
3245;SDS011;1635;48.000;10.582;2022-10-16T13:33:41;1999.90;;;999.90;;
3245;SDS011;1635;48.000;10.582;2022-10-16T13:36:20;1999.90;;;999.90;;
3245;SDS011;1635;48.000;10.582;2022-10-16T13:44:42;1999.90;;;999.90;;
3245;SDS011;1635;48.000;10.582;2022-10-16T13:47:16;1999.90;;;999.90;;
3245;SDS011;1635;48.000;10.582;2022-10-16T13:49:46;1999.90;;;999.90;;
3245;SDS011;1635;48.000;10.582;2022-10-16T13:52:26;1999.90;;;999.90;;
3245;SDS011;1635;48.000;10.582;2022-10-16T13:54:54;1999.90;;;999.90;;
3245;SDS011;1635;48.000;10.582;2022-10-16T13:57:29;1999.90;;;999.90;;
3245;SDS011;1635;48.000;10.582;2022-10-16T14:00:20;1999.90;;;999.90;;
3245;SDS011;1635;48.000;10.582;2022-10-16T14:03:13;1999.90;;;999.90;;
3245;SDS011;1635;48.000;10.582;2022-10-16T14:06:03;1999.90;;;999.90;;
3245;SDS011;1635;48.000;10.582;2022-10-16T14:08:31;1999.90;;;999.90;;
3245;SDS011;1635;48.000;10.582;2022-10-16T14:10:59;1999.90;;;999.90;;
3245;SDS011;1635;48.000;10.582;2022-10-16T14:16:06;1999.90;;;999.90;;
3245;SDS011;1635;48.000;10.582;2022-10-16T14:18:37;1999.90;;;999.90;;
3245;SDS011;1635;48.000;10.582;2022-10-16T14:21:07;1999.90;;;999.90;;
3245;SDS011;1635;48.000;10.582;2022-10-16T14:23:42;1999.90;;;999.90;;
3245;SDS011;1635;48.000;10.582;2022-10-16T14:28:41;149.17;;;90.57;;
3245;SDS011;1635;48.000;10.582;2022-10-16T14:31:22;160.83;;;128.57;;
3245;SDS011;1635;48.000;10.582;2022-10-16T14:33:58;345.90;;;319.83;;
3245;SDS011;1635;48.000;10.582;2022-10-16T14:36:27;139.53;;;81.50;;
3245;SDS011;1635;48.000;10.582;2022-10-16T14:38:58;117.37;;;42.37;;
3245;SDS011;1635;48.000;10.582;2022-10-16T14:41:32;115.47;;;43.00;;
3245;SDS011;1635;48.000;10.582;2022-10-16T14:44:11;126.77;;;78.77;;
3245;SDS011;1635;48.000;10.582;2022-10-16T14:46:40;110.90;;;39.17;;
3245;SDS011;1635;48.000;10.582;2022-10-16T14:51:38;108.27;;;37.03;;
3245;SDS011;1635;48.000;10.582;2022-10-16T14:54:12;107.00;;;34.83;;
3245;SDS011;1635;48.000;10.582;2022-10-16T14:56:51;146.20;;;113.50;;
3245;SDS011;1635;48.000;10.582;2022-10-16T14:59:36;111.60;;;43.30;;
3245;SDS011;1635;48.000;10.582;2022-10-16T15:02:28;351.37;;;322.93;;
3245;SDS011;1635;48.000;10.582;2022-10-16T15:04:56;137.83;;;96.13;;
3245;SDS011;1635;48.000;10.582;2022-10-16T15:07:25;138.97;;;97.30;;
3245;SDS011;1635;48.000;10.582;2022-10-16T15:09:54;232.20;;;177.00;;
3245;SDS011;1635;48.000;10.582;2022-10-16T15:12:24;158.80;;;139.53;;
3245;SDS011;1635;48.000;10.582;2022-10-16T15:14:52;43.63;;;4.47;;
3245;SDS011;1635;48.000;10.582;2022-10-16T15:17:21;41.40;;;4.30;;
3245;SDS011;1635;48.000;10.582;2022-10-16T15:19:48;42.27;;;4.07;;
3245;SDS011;1635;48.000;10.582;2022-10-16T15:22:21;42.70;;;4.10;;
3245;SDS011;1635;48.000;10.582;2022-10-16T15:24:50;43.80;;;4.50;;
3245;SDS011;1635;48.000;10.582;2022-10-16T15:27:26;47.10;;;4.23;;
3245;SDS011;1635;48.000;10.582;2022-10-16T15:29:54;47.87;;;4.07;;
3245;SDS011;1635;48.000;10.582;2022-10-16T15:32:22;48.73;;;4.43;;
3245;SDS011;1635;48.000;10.582;2022-10-16T15:34:50;49.00;;;4.37;;
3245;SDS011;1635;48.000;10.582;2022-10-16T15:37:18;49.67;;;4.40;;
3245;SDS011;1635;48.000;10.582;2022-10-16T15:39:46;49.80;;;4.00;;
3245;SDS011;1635;48.000;10.582;2022-10-16T15:42:13;49.77;;;3.70;;
3245;SDS011;1635;48.000;10.582;2022-10-16T15:44:42;50.10;;;3.60;;
3245;SDS011;1635;48.000;10.582;2022-10-16T15:47:12;50.73;;;3.73;;
3245;SDS011;1635;48.000;10.582;2022-10-16T15:49:40;51.30;;;3.93;;
3245;SDS011;1635;48.000;10.582;2022-10-16T15:52:07;51.40;;;3.90;;
3245;SDS011;1635;48.000;10.582;2022-10-16T15:54:35;51.77;;;4.20;;
3245;SDS011;1635;48.000;10.582;2022-10-16T15:57:05;52.27;;;4.10;;
3245;SDS011;1635;48.000;10.582;2022-10-16T15:59:35;52.33;;;4.20;;
3245;SDS011;1635;48.000;10.582;2022-10-16T16:02:03;52.20;;;4.30;;
3245;SDS011;1635;48.000;10.582;2022-10-16T16:04:32;52.30;;;3.80;;
3245;SDS011;1635;48.000;10.582;2022-10-16T16:07:17;52.60;;;3.97;;
3245;SDS011;1635;48.000;10.582;2022-10-16T16:09:45;53.00;;;4.17;;
3245;SDS011;1635;48.000;10.582;2022-10-16T16:12:12;53.00;;;3.77;;
3245;SDS011;1635;48.000;10.582;2022-10-16T16:14:41;53.07;;;3.67;;
3245;SDS011;1635;48.000;10.582;2022-10-16T16:17:09;53.47;;;3.83;;
3245;SDS011;1635;48.000;10.582;2022-10-16T16:19:37;53.47;;;3.87;;
3245;SDS011;1635;48.000;10.582;2022-10-16T16:22:04;53.17;;;3.63;;
3245;SDS011;1635;48.000;10.582;2022-10-16T16:24:40;53.90;;;3.80;;
3245;SDS011;1635;48.000;10.582;2022-10-16T16:27:08;53.87;;;3.70;;
3245;SDS011;1635;48.000;10.582;2022-10-16T16:29:37;53.90;;;3.40;;
3245;SDS011;1635;48.000;10.582;2022-10-16T16:32:04;53.90;;;3.60;;
3245;SDS011;1635;48.000;10.582;2022-10-16T16:34:34;53.57;;;3.30;;
3245;SDS011;1635;48.000;10.582;2022-10-16T16:37:01;53.60;;;3.50;;
3245;SDS011;1635;48.000;10.582;2022-10-16T16:39:30;53.80;;;3.43;;
3245;SDS011;1635;48.000;10.582;2022-10-16T16:41:57;53.87;;;3.20;;
3245;SDS011;1635;48.000;10.582;2022-10-16T16:44:27;53.70;;;3.03;;
3245;SDS011;1635;48.000;10.582;2022-10-16T16:46:56;53.30;;;3.00;;
3245;SDS011;1635;48.000;10.582;2022-10-16T16:49:24;53.90;;;3.30;;
3245;SDS011;1635;48.000;10.582;2022-10-16T16:51:53;53.67;;;2.70;;
3245;SDS011;1635;48.000;10.582;2022-10-16T16:54:20;53.40;;;2.63;;
3245;SDS011;1635;48.000;10.582;2022-10-16T16:56:48;53.87;;;3.00;;
3245;SDS011;1635;48.000;10.582;2022-10-16T16:59:18;53.37;;;2.70;;
3245;SDS011;1635;48.000;10.582;2022-10-16T17:01:48;53.57;;;2.50;;
3245;SDS011;1635;48.000;10.582;2022-10-16T17:04:23;53.30;;;2.87;;
3245;SDS011;1635;48.000;10.582;2022-10-16T17:06:55;53.67;;;2.43;;
3245;SDS011;1635;48.000;10.582;2022-10-16T17:09:25;53.40;;;2.17;;
3245;SDS011;1635;48.000;10.582;2022-10-16T17:11:52;53.40;;;2.00;;
3245;SDS011;1635;48.000;10.582;2022-10-16T17:14:20;52.67;;;1.87;;
3245;SDS011;1635;48.000;10.582;2022-10-16T17:16:48;52.40;;;2.20;;
3245;SDS011;1635;48.000;10.582;2022-10-16T17:19:18;51.90;;;1.97;;